sensor_id;sensor_type;location;lat;lon;timestamp;P1;durP1;ratioP1;P2;durP2;ratioP2
60714;SDS011;46564;53.096;8.246;2023-03-23T00:02:40;5.82;;;2.67;;
60714;SDS011;46564;53.096;8.246;2023-03-23T00:07:41;7.32;;;3.08;;
60714;SDS011;46564;53.096;8.246;2023-03-23T00:12:45;4.18;;;2.30;;
60714;SDS011;46564;53.096;8.246;2023-03-23T00:17:49;4.65;;;2.78;;
60714;SDS011;46564;53.096;8.246;2023-03-23T00:22:51;4.95;;;2.70;;
60714;SDS011;46564;53.096;8.246;2023-03-23T00:27:51;2.47;;;1.80;;
60714;SDS011;46564;53.096;8.246;2023-03-23T00:32:52;4.75;;;2.55;;
60714;SDS011;46564;53.096;8.246;2023-03-23T00:37:52;4.82;;;2.67;;
60714;SDS011;46564;53.096;8.246;2023-03-23T00:42:53;7.07;;;2.83;;
60714;SDS011;46564;53.096;8.246;2023-03-23T00:47:53;4.30;;;2.20;;
60714;SDS011;46564;53.096;8.246;2023-03-23T00:52:54;5.22;;;2.30;;
60714;SDS011;46564;53.096;8.246;2023-03-23T00:57:56;6.60;;;3.40;;
60714;SDS011;46564;53.096;8.246;2023-03-23T01:02:57;3.85;;;2.30;;
60714;SDS011;46564;53.096;8.246;2023-03-23T01:07:58;3.00;;;1.85;;
60714;SDS011;46564;53.096;8.246;2023-03-23T01:12:59;4.90;;;2.60;;
60714;SDS011;46564;53.096;8.246;2023-03-23T01:18:01;5.50;;;2.72;;
60714;SDS011;46564;53.096;8.246;2023-03-23T01:23:02;3.22;;;1.83;;
60714;SDS011;46564;53.096;8.246;2023-03-23T01:28:03;4.40;;;2.25;;
60714;SDS011;46564;53.096;8.246;2023-03-23T01:33:04;8.13;;;2.42;;
60714;SDS011;46564;53.096;8.246;2023-03-23T01:38:05;5.28;;;2.10;;
60714;SDS011;46564;53.096;8.246;2023-03-23T01:43:09;2.90;;;1.67;;
60714;SDS011;46564;53.096;8.246;2023-03-23T01:48:17;4.47;;;2.38;;
60714;SDS011;46564;53.096;8.246;2023-03-23T01:53:22;4.75;;;2.22;;
60714;SDS011;46564;53.096;8.246;2023-03-23T01:58:27;2.20;;;1.60;;
60714;SDS011;46564;53.096;8.246;2023-03-23T02:03:32;3.10;;;1.60;;
60714;SDS011;46564;53.096;8.246;2023-03-23T02:08:37;1.88;;;1.02;;
60714;SDS011;46564;53.096;8.246;2023-03-23T02:13:41;4.28;;;2.35;;
60714;SDS011;46564;53.096;8.246;2023-03-23T02:24:22;2.35;;;1.65;;
60714;SDS011;46564;53.096;8.246;2023-03-23T02:35:12;3.33;;;1.58;;
60714;SDS011;46564;53.096;8.246;2023-03-23T02:40:35;1.55;;;1.05;;
60714;SDS011;46564;53.096;8.246;2023-03-23T02:45:40;2.88;;;1.90;;
60714;SDS011;46564;53.096;8.246;2023-03-23T02:50:44;2.72;;;1.40;;
60714;SDS011;46564;53.096;8.246;2023-03-23T02:55:47;3.72;;;2.25;;
60714;SDS011;46564;53.096;8.246;2023-03-23T03:00:53;2.90;;;1.63;;
60714;SDS011;46564;53.096;8.246;2023-03-23T03:11:11;2.80;;;1.50;;
60714;SDS011;46564;53.096;8.246;2023-03-23T03:16:21;3.20;;;1.90;;
60714;SDS011;46564;53.096;8.246;2023-03-23T03:21:40;3.00;;;1.58;;
60714;SDS011;46564;53.096;8.246;2023-03-23T03:26:45;3.22;;;1.60;;
60714;SDS011;46564;53.096;8.246;2023-03-23T03:32:24;7.15;;;2.33;;
60714;SDS011;46564;53.096;8.246;2023-03-23T03:37:35;4.25;;;1.30;;
60714;SDS011;46564;53.096;8.246;2023-03-23T03:42:41;5.30;;;2.33;;
60714;SDS011;46564;53.096;8.246;2023-03-23T03:47:43;4.38;;;1.80;;
60714;SDS011;46564;53.096;8.246;2023-03-23T03:52:44;4.95;;;1.92;;
60714;SDS011;46564;53.096;8.246;2023-03-23T03:57:45;3.22;;;1.75;;
60714;SDS011;46564;53.096;8.246;2023-03-23T04:03:06;4.88;;;1.70;;
60714;SDS011;46564;53.096;8.246;2023-03-23T04:08:27;3.97;;;1.85;;
60714;SDS011;46564;53.096;8.246;2023-03-23T04:13:28;4.10;;;1.73;;
60714;SDS011;46564;53.096;8.246;2023-03-23T04:18:38;7.93;;;2.20;;
60714;SDS011;46564;53.096;8.246;2023-03-23T04:23:40;5.05;;;2.33;;
60714;SDS011;46564;53.096;8.246;2023-03-23T04:28:41;5.50;;;2.13;;
60714;SDS011;46564;53.096;8.246;2023-03-23T04:34:02;3.35;;;1.70;;
60714;SDS011;46564;53.096;8.246;2023-03-23T04:39:09;3.08;;;1.70;;
60714;SDS011;46564;53.096;8.246;2023-03-23T04:44:12;4.18;;;1.70;;
60714;SDS011;46564;53.096;8.246;2023-03-23T04:49:21;3.92;;;1.83;;
60714;SDS011;46564;53.096;8.246;2023-03-23T04:54:25;5.82;;;1.83;;
60714;SDS011;46564;53.096;8.246;2023-03-23T04:59:30;2.92;;;1.75;;
60714;SDS011;46564;53.096;8.246;2023-03-23T05:04:51;6.43;;;1.85;;
60714;SDS011;46564;53.096;8.246;2023-03-23T05:09:55;3.55;;;1.52;;
60714;SDS011;46564;53.096;8.246;2023-03-23T05:15:00;3.47;;;1.58;;
60714;SDS011;46564;53.096;8.246;2023-03-23T05:20:04;3.85;;;1.80;;
60714;SDS011;46564;53.096;8.246;2023-03-23T05:25:13;3.88;;;1.75;;
60714;SDS011;46564;53.096;8.246;2023-03-23T05:30:21;3.63;;;1.55;;
60714;SDS011;46564;53.096;8.246;2023-03-23T05:35:22;3.97;;;2.38;;
60714;SDS011;46564;53.096;8.246;2023-03-23T05:40:26;5.00;;;2.20;;
60714;SDS011;46564;53.096;8.246;2023-03-23T05:45:32;3.70;;;1.88;;
60714;SDS011;46564;53.096;8.246;2023-03-23T05:50:32;3.67;;;1.80;;
60714;SDS011;46564;53.096;8.246;2023-03-23T05:55:33;3.45;;;1.85;;
60714;SDS011;46564;53.096;8.246;2023-03-23T06:00:43;3.95;;;1.80;;
60714;SDS011;46564;53.096;8.246;2023-03-23T06:05:53;2.10;;;1.48;;
60714;SDS011;46564;53.096;8.246;2023-03-23T06:10:59;3.70;;;1.45;;
60714;SDS011;46564;53.096;8.246;2023-03-23T06:16:00;3.65;;;1.73;;
60714;SDS011;46564;53.096;8.246;2023-03-23T06:21:19;2.30;;;1.30;;
60714;SDS011;46564;53.096;8.246;2023-03-23T06:26:38;3.42;;;1.73;;
60714;SDS011;46564;53.096;8.246;2023-03-23T06:31:49;2.30;;;1.25;;
60714;SDS011;46564;53.096;8.246;2023-03-23T06:36:54;1.80;;;1.20;;
60714;SDS011;46564;53.096;8.246;2023-03-23T06:42:10;3.80;;;1.40;;
60714;SDS011;46564;53.096;8.246;2023-03-23T06:47:15;4.53;;;1.50;;
60714;SDS011;46564;53.096;8.246;2023-03-23T06:52:20;1.27;;;0.90;;
60714;SDS011;46564;53.096;8.246;2023-03-23T06:57:23;3.20;;;1.15;;
60714;SDS011;46564;53.096;8.246;2023-03-23T07:02:25;2.00;;;1.08;;
60714;SDS011;46564;53.096;8.246;2023-03-23T07:07:27;0.75;;;0.52;;
60714;SDS011;46564;53.096;8.246;2023-03-23T07:12:50;0.30;;;0.30;;
60714;SDS011;46564;53.096;8.246;2023-03-23T07:17:51;0.40;;;0.40;;
60714;SDS011;46564;53.096;8.246;2023-03-23T07:23:00;1.35;;;0.73;;
60714;SDS011;46564;53.096;8.246;2023-03-23T07:28:28;0.40;;;0.40;;
60714;SDS011;46564;53.096;8.246;2023-03-23T07:33:35;0.32;;;0.30;;
60714;SDS011;46564;53.096;8.246;2023-03-23T07:38:36;3.10;;;0.55;;
60714;SDS011;46564;53.096;8.246;2023-03-23T07:43:38;1.25;;;0.50;;
60714;SDS011;46564;53.096;8.246;2023-03-23T07:48:44;1.70;;;0.60;;
60714;SDS011;46564;53.096;8.246;2023-03-23T07:53:45;5.55;;;0.80;;
60714;SDS011;46564;53.096;8.246;2023-03-23T07:59:06;1.60;;;0.88;;
60714;SDS011;46564;53.096;8.246;2023-03-23T08:04:11;2.72;;;0.77;;
60714;SDS011;46564;53.096;8.246;2023-03-23T08:09:40;1.70;;;0.65;;
60714;SDS011;46564;53.096;8.246;2023-03-23T08:15:01;0.95;;;0.63;;
60714;SDS011;46564;53.096;8.246;2023-03-23T08:20:28;1.50;;;0.80;;
60714;SDS011;46564;53.096;8.246;2023-03-23T08:25:38;0.32;;;0.32;;
60714;SDS011;46564;53.096;8.246;2023-03-23T08:30:58;1.63;;;0.47;;
60714;SDS011;46564;53.096;8.246;2023-03-23T08:36:31;0.63;;;0.50;;
60714;SDS011;46564;53.096;8.246;2023-03-23T08:41:41;1.80;;;0.70;;
60714;SDS011;46564;53.096;8.246;2023-03-23T08:46:51;6.82;;;1.27;;
60714;SDS011;46564;53.096;8.246;2023-03-23T08:52:19;3.17;;;1.17;;
60714;SDS011;46564;53.096;8.246;2023-03-23T08:57:56;3.75;;;0.73;;
60714;SDS011;46564;53.096;8.246;2023-03-23T09:03:16;1.38;;;0.32;;
60714;SDS011;46564;53.096;8.246;2023-03-23T09:08:36;1.77;;;0.85;;
60714;SDS011;46564;53.096;8.246;2023-03-23T09:13:37;4.78;;;1.77;;
60714;SDS011;46564;53.096;8.246;2023-03-23T09:18:39;2.05;;;0.75;;
60714;SDS011;46564;53.096;8.246;2023-03-23T09:23:40;3.45;;;1.35;;
60714;SDS011;46564;53.096;8.246;2023-03-23T09:28:44;1.67;;;1.00;;
60714;SDS011;46564;53.096;8.246;2023-03-23T09:33:46;1.00;;;0.63;;
60714;SDS011;46564;53.096;8.246;2023-03-23T09:38:47;1.05;;;0.82;;
60714;SDS011;46564;53.096;8.246;2023-03-23T09:49:33;1.08;;;0.70;;
60714;SDS011;46564;53.096;8.246;2023-03-23T09:54:38;3.08;;;0.98;;
60714;SDS011;46564;53.096;8.246;2023-03-23T10:04:47;1.65;;;0.80;;
60714;SDS011;46564;53.096;8.246;2023-03-23T10:09:51;5.32;;;2.15;;
60714;SDS011;46564;53.096;8.246;2023-03-23T10:14:58;2.45;;;0.90;;
60714;SDS011;46564;53.096;8.246;2023-03-23T10:25:32;1.92;;;0.90;;
60714;SDS011;46564;53.096;8.246;2023-03-23T10:30:38;3.90;;;0.95;;
60714;SDS011;46564;53.096;8.246;2023-03-23T10:36:07;1.48;;;0.95;;
60714;SDS011;46564;53.096;8.246;2023-03-23T10:41:17;1.15;;;0.60;;
60714;SDS011;46564;53.096;8.246;2023-03-23T10:52:32;2.90;;;0.90;;
60714;SDS011;46564;53.096;8.246;2023-03-23T10:57:29;6.18;;;1.20;;
60714;SDS011;46564;53.096;8.246;2023-03-23T11:02:31;1.83;;;1.15;;
60714;SDS011;46564;53.096;8.246;2023-03-23T11:07:47;5.40;;;1.20;;
60714;SDS011;46564;53.096;8.246;2023-03-23T11:12:58;2.45;;;1.15;;
60714;SDS011;46564;53.096;8.246;2023-03-23T11:18:03;8.18;;;1.88;;
60714;SDS011;46564;53.096;8.246;2023-03-23T11:23:22;4.32;;;0.85;;
60714;SDS011;46564;53.096;8.246;2023-03-23T11:28:26;1.83;;;0.85;;
60714;SDS011;46564;53.096;8.246;2023-03-23T11:33:30;3.22;;;1.10;;
60714;SDS011;46564;53.096;8.246;2023-03-23T11:38:38;2.25;;;1.08;;
60714;SDS011;46564;53.096;8.246;2023-03-23T11:43:39;2.80;;;1.42;;
60714;SDS011;46564;53.096;8.246;2023-03-23T11:48:53;3.70;;;1.05;;
60714;SDS011;46564;53.096;8.246;2023-03-23T11:54:00;2.53;;;0.60;;
60714;SDS011;46564;53.096;8.246;2023-03-23T11:59:13;0.98;;;0.47;;
60714;SDS011;46564;53.096;8.246;2023-03-23T12:04:37;1.45;;;0.88;;
60714;SDS011;46564;53.096;8.246;2023-03-23T12:25:30;1.88;;;0.90;;
60714;SDS011;46564;53.096;8.246;2023-03-23T12:30:58;2.90;;;0.93;;
60714;SDS011;46564;53.096;8.246;2023-03-23T12:52:31;1.52;;;0.57;;
60714;SDS011;46564;53.096;8.246;2023-03-23T13:03:09;4.57;;;0.70;;
60714;SDS011;46564;53.096;8.246;2023-03-23T13:08:19;2.97;;;0.57;;
60714;SDS011;46564;53.096;8.246;2023-03-23T13:13:51;0.80;;;0.38;;
60714;SDS011;46564;53.096;8.246;2023-03-23T13:24:15;1.38;;;0.45;;
60714;SDS011;46564;53.096;8.246;2023-03-23T13:29:20;1.35;;;0.50;;
60714;SDS011;46564;53.096;8.246;2023-03-23T13:34:31;2.55;;;1.05;;
60714;SDS011;46564;53.096;8.246;2023-03-23T13:39:33;5.40;;;0.70;;
60714;SDS011;46564;53.096;8.246;2023-03-23T13:44:41;3.65;;;0.70;;
60714;SDS011;46564;53.096;8.246;2023-03-23T13:55:07;3.78;;;0.75;;
60714;SDS011;46564;53.096;8.246;2023-03-23T14:00:33;2.67;;;0.73;;
60714;SDS011;46564;53.096;8.246;2023-03-23T14:05:44;0.30;;;0.30;;
60714;SDS011;46564;53.096;8.246;2023-03-23T14:15:55;2.13;;;0.55;;
60714;SDS011;46564;53.096;8.246;2023-03-23T14:21:01;3.22;;;1.02;;
60714;SDS011;46564;53.096;8.246;2023-03-23T14:26:05;4.00;;;0.70;;
60714;SDS011;46564;53.096;8.246;2023-03-23T14:31:17;2.38;;;0.57;;
60714;SDS011;46564;53.096;8.246;2023-03-23T14:36:23;1.43;;;0.60;;
60714;SDS011;46564;53.096;8.246;2023-03-23T14:41:28;5.28;;;1.02;;
60714;SDS011;46564;53.096;8.246;2023-03-23T14:46:31;5.00;;;0.52;;
60714;SDS011;46564;53.096;8.246;2023-03-23T14:51:32;0.77;;;0.50;;
60714;SDS011;46564;53.096;8.246;2023-03-23T14:56:33;2.50;;;0.95;;
60714;SDS011;46564;53.096;8.246;2023-03-23T15:01:37;1.05;;;0.82;;
60714;SDS011;46564;53.096;8.246;2023-03-23T15:06:40;3.10;;;0.60;;
60714;SDS011;46564;53.096;8.246;2023-03-23T15:11:43;2.83;;;1.00;;
60714;SDS011;46564;53.096;8.246;2023-03-23T15:16:51;0.57;;;0.40;;
60714;SDS011;46564;53.096;8.246;2023-03-23T15:21:55;3.13;;;0.77;;
60714;SDS011;46564;53.096;8.246;2023-03-23T15:32:09;3.60;;;0.50;;
60714;SDS011;46564;53.096;8.246;2023-03-23T15:37:18;1.35;;;0.60;;
60714;SDS011;46564;53.096;8.246;2023-03-23T15:42:22;0.10;;;0.10;;
60714;SDS011;46564;53.096;8.246;2023-03-23T15:47:35;1.48;;;0.68;;
60714;SDS011;46564;53.096;8.246;2023-03-23T15:52:42;2.08;;;1.00;;
60714;SDS011;46564;53.096;8.246;2023-03-23T15:57:43;3.10;;;0.95;;
60714;SDS011;46564;53.096;8.246;2023-03-23T16:02:47;3.55;;;0.55;;
60714;SDS011;46564;53.096;8.246;2023-03-23T16:07:53;2.53;;;0.68;;
60714;SDS011;46564;53.096;8.246;2023-03-23T16:12:54;3.85;;;0.45;;
60714;SDS011;46564;53.096;8.246;2023-03-23T16:17:56;0.98;;;0.47;;
60714;SDS011;46564;53.096;8.246;2023-03-23T16:22:58;1.15;;;0.60;;
60714;SDS011;46564;53.096;8.246;2023-03-23T16:28:00;1.13;;;0.40;;
60714;SDS011;46564;53.096;8.246;2023-03-23T16:33:02;1.83;;;0.73;;
60714;SDS011;46564;53.096;8.246;2023-03-23T16:38:04;0.93;;;0.50;;
60714;SDS011;46564;53.096;8.246;2023-03-23T16:43:08;5.03;;;0.60;;
60714;SDS011;46564;53.096;8.246;2023-03-23T16:48:15;0.70;;;0.57;;
60714;SDS011;46564;53.096;8.246;2023-03-23T16:53:17;3.30;;;0.52;;
60714;SDS011;46564;53.096;8.246;2023-03-23T16:58:19;4.15;;;0.70;;
60714;SDS011;46564;53.096;8.246;2023-03-23T17:03:21;1.80;;;0.75;;
60714;SDS011;46564;53.096;8.246;2023-03-23T17:08:23;1.55;;;0.52;;
60714;SDS011;46564;53.096;8.246;2023-03-23T17:13:24;7.93;;;0.85;;
60714;SDS011;46564;53.096;8.246;2023-03-23T17:18:28;1.05;;;0.60;;
60714;SDS011;46564;53.096;8.246;2023-03-23T17:23:29;1.75;;;0.70;;
60714;SDS011;46564;53.096;8.246;2023-03-23T17:28:31;1.60;;;0.43;;
60714;SDS011;46564;53.096;8.246;2023-03-23T17:33:32;0.98;;;0.30;;
60714;SDS011;46564;53.096;8.246;2023-03-23T17:38:34;3.63;;;0.47;;
60714;SDS011;46564;53.096;8.246;2023-03-23T17:43:36;1.85;;;0.52;;
60714;SDS011;46564;53.096;8.246;2023-03-23T17:48:41;2.17;;;0.80;;
60714;SDS011;46564;53.096;8.246;2023-03-23T17:53:42;1.80;;;0.57;;
60714;SDS011;46564;53.096;8.246;2023-03-23T17:58:44;1.08;;;0.47;;
60714;SDS011;46564;53.096;8.246;2023-03-23T18:03:45;1.23;;;0.60;;
60714;SDS011;46564;53.096;8.246;2023-03-23T18:08:47;2.40;;;1.20;;
60714;SDS011;46564;53.096;8.246;2023-03-23T18:13:49;3.22;;;0.90;;
60714;SDS011;46564;53.096;8.246;2023-03-23T18:18:50;2.42;;;0.82;;
60714;SDS011;46564;53.096;8.246;2023-03-23T18:23:52;1.27;;;0.40;;
60714;SDS011;46564;53.096;8.246;2023-03-23T18:29:00;0.47;;;0.32;;
60714;SDS011;46564;53.096;8.246;2023-03-23T18:34:02;2.05;;;1.02;;
60714;SDS011;46564;53.096;8.246;2023-03-23T18:39:04;0.47;;;0.47;;
60714;SDS011;46564;53.096;8.246;2023-03-23T18:44:06;1.63;;;0.88;;
60714;SDS011;46564;53.096;8.246;2023-03-23T18:49:08;0.38;;;0.35;;
60714;SDS011;46564;53.096;8.246;2023-03-23T18:54:09;2.75;;;0.98;;
60714;SDS011;46564;53.096;8.246;2023-03-23T18:59:11;1.20;;;0.65;;
60714;SDS011;46564;53.096;8.246;2023-03-23T19:04:13;2.20;;;0.60;;
60714;SDS011;46564;53.096;8.246;2023-03-23T19:09:15;3.33;;;1.00;;
60714;SDS011;46564;53.096;8.246;2023-03-23T19:14:17;1.98;;;0.70;;
60714;SDS011;46564;53.096;8.246;2023-03-23T19:19:19;2.60;;;1.02;;
60714;SDS011;46564;53.096;8.246;2023-03-23T19:24:21;2.90;;;1.00;;
60714;SDS011;46564;53.096;8.246;2023-03-23T19:29:23;2.47;;;1.00;;
60714;SDS011;46564;53.096;8.246;2023-03-23T19:34:27;3.15;;;0.98;;
60714;SDS011;46564;53.096;8.246;2023-03-23T19:39:31;2.22;;;0.80;;
60714;SDS011;46564;53.096;8.246;2023-03-23T19:44:32;1.65;;;1.02;;
60714;SDS011;46564;53.096;8.246;2023-03-23T19:49:35;0.88;;;0.63;;
60714;SDS011;46564;53.096;8.246;2023-03-23T19:54:37;4.28;;;1.23;;
60714;SDS011;46564;53.096;8.246;2023-03-23T20:04:41;2.20;;;1.00;;
60714;SDS011;46564;53.096;8.246;2023-03-23T20:09:43;1.30;;;1.00;;
60714;SDS011;46564;53.096;8.246;2023-03-23T20:14:45;3.50;;;1.48;;
60714;SDS011;46564;53.096;8.246;2023-03-23T20:19:47;5.15;;;1.52;;
60714;SDS011;46564;53.096;8.246;2023-03-23T20:24:49;4.00;;;1.52;;
60714;SDS011;46564;53.096;8.246;2023-03-23T20:29:50;2.47;;;1.30;;
60714;SDS011;46564;53.096;8.246;2023-03-23T20:34:53;4.15;;;1.50;;
60714;SDS011;46564;53.096;8.246;2023-03-23T20:39:57;8.90;;;2.10;;
60714;SDS011;46564;53.096;8.246;2023-03-23T20:44:58;3.80;;;1.92;;
60714;SDS011;46564;53.096;8.246;2023-03-23T20:50:01;3.50;;;1.77;;
60714;SDS011;46564;53.096;8.246;2023-03-23T20:55:06;5.10;;;2.10;;
60714;SDS011;46564;53.096;8.246;2023-03-23T21:00:09;5.47;;;1.80;;
60714;SDS011;46564;53.096;8.246;2023-03-23T21:05:16;6.35;;;3.35;;
60714;SDS011;46564;53.096;8.246;2023-03-23T21:10:17;4.63;;;2.25;;
60714;SDS011;46564;53.096;8.246;2023-03-23T21:15:19;5.78;;;2.47;;
60714;SDS011;46564;53.096;8.246;2023-03-23T21:20:21;8.32;;;3.20;;
60714;SDS011;46564;53.096;8.246;2023-03-23T21:25:24;8.40;;;3.42;;
60714;SDS011;46564;53.096;8.246;2023-03-23T21:30:35;7.65;;;2.95;;
60714;SDS011;46564;53.096;8.246;2023-03-23T21:35:37;7.57;;;2.60;;
60714;SDS011;46564;53.096;8.246;2023-03-23T21:40:42;5.80;;;2.47;;
60714;SDS011;46564;53.096;8.246;2023-03-23T21:45:44;5.10;;;2.75;;
60714;SDS011;46564;53.096;8.246;2023-03-23T21:50:46;8.20;;;3.30;;
60714;SDS011;46564;53.096;8.246;2023-03-23T21:55:48;5.82;;;2.53;;
60714;SDS011;46564;53.096;8.246;2023-03-23T22:00:54;5.93;;;2.55;;
60714;SDS011;46564;53.096;8.246;2023-03-23T22:05:57;5.35;;;2.65;;
60714;SDS011;46564;53.096;8.246;2023-03-23T22:11:00;4.55;;;2.63;;
60714;SDS011;46564;53.096;8.246;2023-03-23T22:16:05;6.25;;;2.95;;
60714;SDS011;46564;53.096;8.246;2023-03-23T22:21:10;6.38;;;2.47;;
60714;SDS011;46564;53.096;8.246;2023-03-23T22:26:13;5.13;;;1.80;;
60714;SDS011;46564;53.096;8.246;2023-03-23T22:31:17;6.55;;;2.65;;
60714;SDS011;46564;53.096;8.246;2023-03-23T22:36:23;6.97;;;2.70;;
60714;SDS011;46564;53.096;8.246;2023-03-23T22:41:30;5.63;;;2.10;;
60714;SDS011;46564;53.096;8.246;2023-03-23T22:46:34;5.47;;;2.10;;
60714;SDS011;46564;53.096;8.246;2023-03-23T22:51:36;4.97;;;1.83;;
60714;SDS011;46564;53.096;8.246;2023-03-23T22:56:38;7.57;;;1.75;;
60714;SDS011;46564;53.096;8.246;2023-03-23T23:01:45;2.83;;;1.38;;
60714;SDS011;46564;53.096;8.246;2023-03-23T23:06:52;3.55;;;1.20;;
60714;SDS011;46564;53.096;8.246;2023-03-23T23:12:11;2.50;;;1.55;;
60714;SDS011;46564;53.096;8.246;2023-03-23T23:17:14;3.35;;;1.58;;
60714;SDS011;46564;53.096;8.246;2023-03-23T23:22:15;3.75;;;1.67;;
60714;SDS011;46564;53.096;8.246;2023-03-23T23:27:19;6.65;;;1.80;;
60714;SDS011;46564;53.096;8.246;2023-03-23T23:32:21;3.05;;;1.40;;
60714;SDS011;46564;53.096;8.246;2023-03-23T23:37:23;7.05;;;1.65;;
60714;SDS011;46564;53.096;8.246;2023-03-23T23:42:24;2.05;;;1.10;;
60714;SDS011;46564;53.096;8.246;2023-03-23T23:47:26;2.85;;;0.90;;
60714;SDS011;46564;53.096;8.246;2023-03-23T23:52:28;1.88;;;0.98;;
60714;SDS011;46564;53.096;8.246;2023-03-23T23:57:30;2.80;;;1.30;;
